Terminal Aerodrome Forecast
Issued by NWS

Home | Current Version | Previous Version | Text Only | Print | Product List | Glossary On
Versions: 1 2 3 4 5 6 7 8 9 10 11 12 13 14 15 16 17 18 19 20 21 22 23 24 25 26 27 28 29 30 31 32 33 34 35 36 37 38 39 40 41 42 43 44 45 46 47 48 49 50
000
FTUS43 KLOT 292332
TAFGYY
TAF
KGYY 292332Z 3000/3024 07012G23KT P6SM VCSH SCT060 BKN100
      TEMPO 3000/3001 5SM -SHRA BKN050 OVC060
     FM300100 07012G23KT P6SM SCT030 OVC060
     FM300800 09016G25KT 4SM -SHRA BKN030 OVC050
     FM301000 08016G25KT 3SM -SHRA BR BKN015 OVC030 PROB30 3010/3012
      2SM -TSRA OVC030CB
     FM301200 08016G22KT 2SM -SHRA BR OVC007=

USA.gov is the U.S. government's official web portal to all federal, state and local government web resources and services.